Time;durP1;ratioP1;P1;durP2;ratioP2;P2;SDS_P1;SDS_P2;PMS_P1;PMS_P2;Temp;Humidity;BMP_temperature;BMP_pressure;BME280_temperature;BME280_humidity;BME280_pressure;Samples;Min_cycle;Max_cycle;Signal;HPM_P1;HPM_P2
2021/01/28 00:00:12;;;;;;;22.97;12.80;;;4.10;99.90;;;;;;5029918;28;20726;-49
2021/01/28 00:02:37;;;;;;;27.40;13.00;;;4.10;99.90;;;;;;5041031;28;20210;-53
2021/01/28 00:05:03;;;;;;;31.30;13.87;;;4.10;99.90;;;;;;5038963;28;20210;-51
2021/01/28 00:07:29;;;;;;;27.77;13.00;;;4.10;99.90;;;;;;5043058;28;20757;-51
2021/01/28 00:09:54;;;;;;;27.00;13.80;;;4.20;99.90;;;;;;5025258;28;20230;-53
2021/01/28 00:12:21;;;;;;;25.23;13.70;;;4.20;99.90;;;;;;5037307;28;20214;-48
2021/01/28 00:14:46;;;;;;;24.83;13.30;;;4.20;99.90;;;;;;5042046;28;20280;-51
2021/01/28 00:17:12;;;;;;;28.03;13.40;;;4.20;99.90;;;;;;5022892;28;20257;-50
2021/01/28 00:19:37;;;;;;;24.77;13.30;;;4.20;99.90;;;;;;5043262;28;20265;-48
2021/01/28 00:22:03;;;;;;;28.70;13.87;;;4.30;99.90;;;;;;5038329;28;20934;-47
2021/01/28 00:24:28;;;;;;;27.70;12.80;;;4.30;99.90;;;;;;5028696;28;20215;-49
2021/01/28 00:26:54;;;;;;;25.37;13.93;;;4.30;99.90;;;;;;5040517;28;20191;-57
2021/01/28 00:29:19;;;;;;;25.53;12.73;;;4.30;99.90;;;;;;5036217;28;20190;-51
2021/01/28 00:31:45;;;;;;;33.37;14.67;;;4.30;99.90;;;;;;5036349;28;20202;-50
2021/01/28 00:34:10;;;;;;;27.47;13.87;;;4.30;99.90;;;;;;5040459;28;20786;-51
2021/01/28 00:36:36;;;;;;;25.67;13.57;;;4.40;99.90;;;;;;5040793;28;20188;-54
2021/01/28 00:39:04;;;;;;;29.20;14.60;;;4.40;99.90;;;;;;5032318;28;20879;-50
2021/01/28 00:41:29;;;;;;;27.53;13.80;;;4.40;99.90;;;;;;5037148;28;20191;-46
2021/01/28 00:43:54;;;;;;;24.10;13.47;;;4.40;99.90;;;;;;5040030;28;20702;-53
2021/01/28 00:46:20;;;;;;;25.93;13.57;;;4.40;99.90;;;;;;5033482;28;20221;-52
2021/01/28 00:48:48;;;;;;;25.57;11.93;;;4.40;99.90;;;;;;5042166;28;20183;-50
2021/01/28 00:51:14;;;;;;;18.80;10.77;;;4.50;99.90;;;;;;5030878;28;20821;-49
2021/01/28 00:53:39;;;;;;;22.40;11.67;;;4.50;99.90;;;;;;5039216;28;20259;-49
2021/01/28 00:56:05;;;;;;;18.43;10.87;;;4.50;99.90;;;;;;5031136;28;20248;-49
2021/01/28 00:58:30;;;;;;;21.13;11.50;;;4.50;99.90;;;;;;5043154;28;20199;-49
2021/01/28 01:00:56;;;;;;;19.97;11.87;;;4.50;99.90;;;;;;5039689;28;20659;-46
2021/01/28 01:03:23;;;;;;;23.43;11.70;;;4.50;99.90;;;;;;5036907;28;20276;-50
2021/01/28 01:05:50;;;;;;;23.20;11.67;;;4.50;99.90;;;;;;5042136;28;20575;-50
2021/01/28 01:08:22;;;;;;;24.67;13.40;;;4.50;99.90;;;;;;5041217;28;20919;-48
2021/01/28 01:10:50;;;;;;;24.53;11.43;;;4.50;99.90;;;;;;5035077;28;20293;-52
2021/01/28 01:13:25;;;;;;;23.33;12.90;;;4.50;99.90;;;;;;5040927;28;21004;-52
2021/01/28 01:15:51;;;;;;;22.93;12.20;;;4.50;99.90;;;;;;5040780;28;20325;-52
2021/01/28 01:18:19;;;;;;;23.20;10.93;;;4.40;99.90;;;;;;5033675;28;20274;-48
2021/01/28 01:20:46;;;;;;;25.60;12.87;;;4.40;99.90;;;;;;5044266;28;20189;-56
2021/01/28 01:23:11;;;;;;;18.83;10.60;;;4.40;99.90;;;;;;5040244;28;20387;-51
2021/01/28 01:25:37;;;;;;;19.83;11.07;;;4.30;99.90;;;;;;5042214;28;20704;-49
2021/01/28 01:28:03;;;;;;;20.80;10.97;;;4.30;99.90;;;;;;5032731;28;20985;-47
2021/01/28 01:30:29;;;;;;;17.10;9.10;;;4.30;99.90;;;;;;5042988;28;20204;-53
2021/01/28 01:32:55;;;;;;;19.53;10.27;;;4.30;99.90;;;;;;5030521;28;20188;-49
2021/01/28 01:35:23;;;;;;;17.57;9.07;;;4.20;99.90;;;;;;5041608;28;20199;-48
2021/01/28 01:37:49;;;;;;;15.87;9.43;;;4.20;99.90;;;;;;5041142;28;20187;-52
2021/01/28 01:40:20;;;;;;;16.30;9.07;;;4.20;99.90;;;;;;5040605;28;20206;-47
2021/01/28 01:42:47;;;;;;;19.97;11.03;;;4.20;99.90;;;;;;5033671;28;20187;-53
2021/01/28 01:45:14;;;;;;;16.77;9.30;;;4.20;99.90;;;;;;5040304;28;20273;-52
2021/01/28 01:47:50;;;;;;;20.50;10.67;;;4.10;99.90;;;;;;5043471;28;20178;-51
2021/01/28 01:50:31;;;;;;;20.93;10.80;;;4.10;99.90;;;;;;5035296;28;20471;-51
2021/01/28 01:52:58;;;;;;;21.23;10.30;;;4.10;99.90;;;;;;5042516;28;20183;-48
2021/01/28 01:55:24;;;;;;;19.37;10.13;;;4.00;99.90;;;;;;5046604;28;20206;-48
2021/01/28 01:57:49;;;;;;;18.40;9.80;;;4.00;99.90;;;;;;5038422;28;20188;-48
2021/01/28 02:00:20;;;;;;;15.60;7.77;;;4.00;99.90;;;;;;5044100;28;20933;-48
2021/01/28 02:02:52;;;;;;;17.67;8.90;;;3.90;99.90;;;;;;5041964;28;20266;-49
2021/01/28 02:05:24;;;;;;;13.83;8.27;;;3.80;99.90;;;;;;5028003;28;20215;-51
2021/01/28 02:07:50;;;;;;;17.60;8.80;;;3.70;99.90;;;;;;5042376;28;20179;-53
2021/01/28 02:10:17;;;;;;;17.90;8.47;;;3.70;99.90;;;;;;5045058;28;20179;-51
2021/01/28 02:12:43;;;;;;;16.00;8.73;;;3.70;99.90;;;;;;5030591;28;20222;-52
2021/01/28 02:15:10;;;;;;;20.10;8.70;;;3.70;99.90;;;;;;5045948;28;20559;-52
2021/01/28 02:17:39;;;;;;;20.27;8.97;;;3.70;99.90;;;;;;5043435;28;20178;-49
2021/01/28 02:20:30;;;;;;;16.77;8.70;;;3.60;99.90;;;;;;5035382;28;20187;-48
2021/01/28 02:23:33;;;;;;;15.80;8.57;;;3.60;99.90;;;;;;5048386;28;20466;-49
2021/01/28 02:25:59;;;;;;;16.83;8.03;;;3.60;99.90;;;;;;5041513;28;20884;-48
2021/01/28 02:28:25;;;;;;;16.43;7.90;;;3.60;99.90;;;;;;5039426;28;20213;-51
2021/01/28 02:30:55;;;;;;;17.83;8.77;;;3.50;99.90;;;;;;5042158;28;20944;-45
2021/01/28 02:33:46;;;;;;;15.77;7.60;;;3.50;99.90;;;;;;5045683;28;20703;-46
2021/01/28 02:36:13;;;;;;;17.73;7.53;;;3.50;99.90;;;;;;5034259;28;20192;-48
2021/01/28 02:38:39;;;;;;;14.93;7.77;;;3.40;99.90;;;;;;5041975;28;20187;-57
2021/01/28 02:41:07;;;;;;;17.43;7.37;;;3.30;99.90;;;;;;5044921;28;20644;-46
2021/01/28 02:43:33;;;;;;;17.03;8.37;;;3.30;99.90;;;;;;5034668;28;20187;-58
2021/01/28 02:46:11;;;;;;;13.20;7.00;;;3.20;99.90;;;;;;5043232;28;21003;-51
2021/01/28 02:48:37;;;;;;;13.13;7.50;;;3.20;99.90;;;;;;5037786;28;20194;-52
2021/01/28 02:51:04;;;;;;;14.20;6.83;;;3.20;99.90;;;;;;5032171;28;20195;-47
2021/01/28 02:53:40;;;;;;;15.73;7.17;;;3.10;99.90;;;;;;5043744;28;20186;-50
2021/01/28 02:56:05;;;;;;;14.40;7.20;;;3.10;99.90;;;;;;5044989;28;20260;-55
2021/01/28 02:58:31;;;;;;;12.33;7.23;;;3.10;99.90;;;;;;5038276;28;20570;-49
2021/01/28 03:00:57;;;;;;;14.20;7.57;;;3.10;99.90;;;;;;5042608;28;20187;-51
2021/01/28 03:03:22;;;;;;;15.33;7.73;;;3.00;99.90;;;;;;5045399;28;20190;-54
2021/01/28 03:05:48;;;;;;;15.23;6.90;;;3.00;99.90;;;;;;5029851;28;20250;-50
2021/01/28 03:08:14;;;;;;;12.67;6.70;;;3.00;99.90;;;;;;5050263;28;20255;-49
2021/01/28 03:10:39;;;;;;;10.73;6.00;;;3.00;99.90;;;;;;5041338;28;20187;-50
2021/01/28 03:13:05;;;;;;;12.10;6.53;;;3.00;99.90;;;;;;5036177;28;20233;-47
2021/01/28 03:15:31;;;;;;;10.03;5.53;;;3.00;99.90;;;;;;5043097;28;20232;-54
2021/01/28 03:17:57;;;;;;;10.43;5.87;;;3.00;99.90;;;;;;5042463;28;20176;-48
2021/01/28 03:20:24;;;;;;;10.93;6.47;;;3.00;99.90;;;;;;5044627;28;20245;-48
2021/01/28 03:22:49;;;;;;;10.80;5.83;;;3.00;99.90;;;;;;5022597;28;20379;-49
2021/01/28 03:25:17;;;;;;;11.70;4.87;;;2.90;99.90;;;;;;5044526;28;20212;-50
2021/01/28 03:27:43;;;;;;;8.80;4.87;;;3.00;99.90;;;;;;5034180;28;20194;-49
2021/01/28 03:30:12;;;;;;;9.40;5.73;;;3.00;99.90;;;;;;5038712;28;20191;-49
2021/01/28 03:32:37;;;;;;;10.97;5.03;;;3.00;99.90;;;;;;5041410;28;20203;-51
2021/01/28 03:35:04;;;;;;;9.10;5.30;;;3.00;99.90;;;;;;5043511;28;20203;-53
2021/01/28 03:37:30;;;;;;;8.10;4.60;;;3.00;99.90;;;;;;5031228;28;20202;-53
2021/01/28 03:39:55;;;;;;;10.17;5.63;;;3.00;99.90;;;;;;5041719;28;20175;-54
2021/01/28 03:42:21;;;;;;;11.27;5.67;;;2.90;99.90;;;;;;5040857;28;20188;-55
2021/01/28 03:44:46;;;;;;;10.13;4.90;;;2.90;99.90;;;;;;5033854;28;20192;-51
2021/01/28 03:47:12;;;;;;;7.73;5.03;;;2.90;99.90;;;;;;5043402;28;20271;-48
2021/01/28 03:49:37;;;;;;;9.00;5.40;;;2.90;99.90;;;;;;5041206;28;20210;-46
2021/01/28 03:52:03;;;;;;;9.30;5.30;;;2.90;99.90;;;;;;5031734;28;20680;-52
2021/01/28 03:54:28;;;;;;;9.40;5.53;;;2.90;99.90;;;;;;5043385;28;20179;-51
2021/01/28 03:56:54;;;;;;;8.30;4.90;;;2.90;99.90;;;;;;5040014;28;20246;-47
2021/01/28 03:59:19;;;;;;;9.00;5.53;;;2.90;99.90;;;;;;5044038;28;20182;-46
2021/01/28 04:01:45;;;;;;;8.00;4.90;;;2.80;99.90;;;;;;5029598;28;20183;-46
2021/01/28 04:04:10;;;;;;;7.17;4.27;;;2.80;99.90;;;;;;5044042;28;20197;-49
2021/01/28 04:06:36;;;;;;;7.53;4.70;;;2.80;99.90;;;;;;5034631;28;20701;-50
2021/01/28 04:09:01;;;;;;;6.87;4.03;;;2.80;99.90;;;;;;5031199;28;20241;-50
2021/01/28 04:11:27;;;;;;;7.30;3.87;;;2.80;99.90;;;;;;5041626;28;20236;-54
2021/01/28 04:13:52;;;;;;;7.73;4.10;;;2.70;99.90;;;;;;5039321;28;20175;-52
2021/01/28 04:16:18;;;;;;;5.40;4.03;;;2.70;99.90;;;;;;5043335;28;20195;-51
2021/01/28 04:18:43;;;;;;;6.57;4.50;;;2.70;99.90;;;;;;5033188;28;20276;-52
2021/01/28 04:21:09;;;;;;;6.43;3.97;;;2.70;99.90;;;;;;5044272;28;20191;-50
2021/01/28 04:23:34;;;;;;;7.57;4.20;;;2.60;99.90;;;;;;5030267;28;20232;-49
2021/01/28 04:26:00;;;;;;;6.40;4.27;;;2.60;99.90;;;;;;5042021;28;20199;-52
2021/01/28 04:28:25;;;;;;;7.97;4.50;;;2.60;99.90;;;;;;5043433;28;20540;-49
2021/01/28 04:30:50;;;;;;;7.93;4.70;;;2.60;99.90;;;;;;5040363;28;20241;-48
2021/01/28 04:33:16;;;;;;;4.83;3.93;;;2.60;99.90;;;;;;5038647;28;20615;-51
2021/01/28 04:35:41;;;;;;;7.07;4.43;;;2.50;99.90;;;;;;5039577;28;20199;-51
2021/01/28 04:38:07;;;;;;;8.17;4.80;;;2.50;99.90;;;;;;5043428;28;20271;-52
2021/01/28 04:40:43;;;;;;;9.20;4.70;;;2.50;99.90;;;;;;5031621;28;20285;-50
2021/01/28 04:43:19;;;;;;;6.43;4.10;;;2.50;99.90;;;;;;5034417;28;20529;-48
2021/01/28 04:45:45;;;;;;;7.00;4.50;;;2.50;99.90;;;;;;5038996;28;20270;-50
2021/01/28 04:48:11;;;;;;;5.97;4.03;;;2.40;99.90;;;;;;5037927;28;20235;-49
2021/01/28 04:50:40;;;;;;;4.57;3.33;;;2.40;99.90;;;;;;5039911;28;20223;-49
2021/01/28 04:53:37;;;;;;;7.23;4.37;;;2.40;99.90;;;;;;5042934;28;20194;-48
2021/01/28 04:56:10;;;;;;;5.57;3.87;;;2.30;99.90;;;;;;5037858;28;20214;-51
2021/01/28 04:58:35;;;;;;;5.30;3.97;;;2.30;99.90;;;;;;5040618;28;20184;-53
2021/01/28 05:01:01;;;;;;;6.53;3.83;;;2.30;99.90;;;;;;5029673;28;20192;-50
2021/01/28 05:03:39;;;;;;;4.87;3.77;;;2.20;99.90;;;;;;5030525;28;20257;-52
2021/01/28 05:06:05;;;;;;;5.40;4.63;;;2.20;99.90;;;;;;5028464;28;20207;-52
2021/01/28 05:08:31;;;;;;;7.20;3.87;;;2.20;99.90;;;;;;5041386;28;20215;-52
2021/01/28 05:10:59;;;;;;;8.17;4.80;;;2.10;99.90;;;;;;5028573;28;20249;-47
2021/01/28 05:13:31;;;;;;;7.73;4.57;;;2.10;99.90;;;;;;5037028;28;20558;-55
2021/01/28 05:16:00;;;;;;;4.87;3.33;;;2.10;99.90;;;;;;5040524;28;20930;-46
2021/01/28 05:18:33;;;;;;;7.40;4.40;;;2.00;99.90;;;;;;5042410;28;20183;-55
2021/01/28 05:21:18;;;;;;;6.10;4.30;;;2.00;99.90;;;;;;5037032;28;20261;-48
2021/01/28 05:23:45;;;;;;;6.17;3.63;;;1.90;99.90;;;;;;5029294;28;20186;-48
2021/01/28 05:26:49;;;;;;;6.53;4.13;;;1.90;99.90;;;;;;5038758;28;20253;-54
2021/01/28 05:29:21;;;;;;;6.30;4.23;;;1.90;99.90;;;;;;5064367;28;20209;-55
2021/01/28 05:31:48;;;;;;;8.07;4.87;;;1.90;99.90;;;;;;5060497;28;20206;-54
2021/01/28 05:34:23;;;;;;;6.97;4.43;;;1.90;99.90;;;;;;5049767;28;20230;-52
2021/01/28 05:37:05;;;;;;;6.83;4.60;;;1.90;99.90;;;;;;5043496;28;20181;-52
2021/01/28 05:39:38;;;;;;;6.53;4.03;;;1.90;99.90;;;;;;5041136;28;20187;-52
2021/01/28 05:42:25;;;;;;;10.10;5.37;;;1.90;99.90;;;;;;5030731;28;20225;-55
2021/01/28 05:44:51;;;;;;;6.30;3.97;;;1.90;99.90;;;;;;5043539;28;20187;-53
2021/01/28 05:47:27;;;;;;;8.03;4.63;;;1.80;99.90;;;;;;5047153;28;20198;-48
2021/01/28 05:50:10;;;;;;;8.23;5.07;;;1.80;99.90;;;;;;5037862;28;20264;-49
2021/01/28 05:52:36;;;;;;;9.20;5.07;;;1.80;99.90;;;;;;5043496;28;20219;-55
2021/01/28 05:55:23;;;;;;;6.33;4.57;;;1.80;99.90;;;;;;5039505;28;20299;-46
2021/01/28 05:58:01;;;;;;;7.70;4.90;;;1.80;99.90;;;;;;5030959;28;20226;-55
2021/01/28 06:00:53;;;;;;;6.70;4.63;;;1.80;99.90;;;;;;5041933;28;20277;-47
2021/01/28 06:03:57;;;;;;;8.60;4.27;;;1.80;99.90;;;;;;5037265;28;20183;-45
2021/01/28 06:06:43;;;;;;;6.37;4.07;;;1.70;99.90;;;;;;5028131;28;20203;-46
2021/01/28 06:09:26;;;;;;;7.07;4.37;;;1.70;99.90;;;;;;5036075;28;20191;-58
2021/01/28 06:12:33;;;;;;;8.03;4.93;;;1.70;99.90;;;;;;5043223;28;20222;-58
2021/01/28 06:15:28;;;;;;;7.63;4.57;;;1.60;99.90;;;;;;5042733;28;20801;-58
2021/01/28 06:18:10;;;;;;;5.67;3.93;;;1.60;99.90;;;;;;5041012;28;20658;-52
2021/01/28 06:21:13;;;;;;;6.33;4.80;;;1.60;99.90;;;;;;5021821;28;20188;-51
2021/01/28 06:24:17;;;;;;;7.80;4.50;;;1.60;99.90;;;;;;5045924;28;20182;-47
2021/01/28 06:26:58;;;;;;;6.93;4.80;;;1.50;99.90;;;;;;5035333;28;20725;-54
2021/01/28 06:29:51;;;;;;;5.43;4.13;;;1.50;99.90;;;;;;5032037;28;20292;-48
2021/01/28 06:32:45;;;;;;;6.93;4.60;;;1.50;99.90;;;;;;5037943;28;20205;-49
2021/01/28 06:35:24;;;;;;;5.43;3.77;;;1.40;99.90;;;;;;5032640;28;20355;-51
2021/01/28 06:38:12;;;;;;;8.50;5.17;;;1.40;99.90;;;;;;5036095;28;20554;-53
2021/01/28 06:40:46;;;;;;;10.00;5.53;;;1.40;99.90;;;;;;5045475;28;20261;-46
2021/01/28 06:43:17;;;;;;;8.80;4.77;;;1.40;99.90;;;;;;5018476;28;20190;-46
2021/01/28 06:45:57;;;;;;;5.10;3.83;;;1.40;99.90;;;;;;5035071;28;20214;-49
2021/01/28 06:48:29;;;;;;;7.27;4.83;;;1.30;99.90;;;;;;5036981;28;20875;-48
2021/01/28 06:51:06;;;;;;;7.43;4.13;;;1.30;99.90;;;;;;5033930;28;20215;-55
2021/01/28 06:53:43;;;;;;;7.87;4.97;;;1.20;99.90;;;;;;5047549;28;20604;-46
2021/01/28 06:56:42;;;;;;;6.27;4.60;;;1.20;99.90;;;;;;5041203;28;20392;-55
2021/01/28 06:59:18;;;;;;;8.03;5.03;;;1.20;99.90;;;;;;5021811;28;20196;-55
2021/01/28 07:01:48;;;;;;;6.27;4.37;;;1.20;99.90;;;;;;5045108;28;20186;-46
2021/01/28 07:04:13;;;;;;;7.23;5.07;;;1.10;99.90;;;;;;5041276;28;20181;-47
2021/01/28 07:07:08;;;;;;;7.53;4.53;;;1.10;99.90;;;;;;5036022;28;20186;-51
2021/01/28 07:09:42;;;;;;;5.30;4.00;;;1.10;99.90;;;;;;5044740;28;20202;-51
2021/01/28 07:12:12;;;;;;;7.20;4.43;;;1.10;99.90;;;;;;5035070;28;20210;-53
2021/01/28 07:14:38;;;;;;;7.33;4.60;;;1.10;99.90;;;;;;5027684;28;20198;-52
2021/01/28 07:17:25;;;;;;;8.07;4.93;;;1.10;99.90;;;;;;5041923;28;20174;-48
2021/01/28 07:19:57;;;;;;;8.17;5.07;;;1.10;99.90;;;;;;5044651;28;20181;-50
2021/01/28 07:22:32;;;;;;;7.37;4.70;;;1.00;99.90;;;;;;5032010;28;20200;-51
2021/01/28 07:25:32;;;;;;;7.67;5.30;;;1.00;99.90;;;;;;5042704;28;20297;-51
2021/01/28 07:28:00;;;;;;;11.77;5.03;;;1.00;99.90;;;;;;5036774;28;20185;-52
2021/01/28 07:30:47;;;;;;;7.47;5.00;;;1.00;99.90;;;;;;5017390;28;20340;-48
2021/01/28 07:33:25;;;;;;;7.53;5.30;;;1.00;99.90;;;;;;5037371;28;20186;-51
2021/01/28 07:36:01;;;;;;;7.23;5.23;;;1.00;99.90;;;;;;5037784;28;20196;-50
2021/01/28 07:38:27;;;;;;;8.90;5.50;;;1.00;99.90;;;;;;5030812;28;20185;-53
2021/01/28 07:41:16;;;;;;;7.00;4.80;;;1.00;99.90;;;;;;5043377;28;20551;-50
2021/01/28 07:43:45;;;;;;;7.53;5.13;;;1.00;99.90;;;;;;5034111;28;20696;-49
2021/01/28 07:46:32;;;;;;;6.50;5.13;;;1.00;99.90;;;;;;5030522;28;20842;-47
2021/01/28 07:49:13;;;;;;;9.10;5.83;;;1.00;99.90;;;;;;5041890;28;20193;-53
2021/01/28 07:51:44;;;;;;;7.53;5.43;;;1.00;99.90;;;;;;5032165;28;20227;-48
2021/01/28 07:54:24;;;;;;;7.77;5.23;;;1.00;99.90;;;;;;5033665;28;20170;-52
2021/01/28 07:57:10;;;;;;;7.27;5.40;;;0.90;99.90;;;;;;5041937;28;20224;-53
2021/01/28 07:59:58;;;;;;;9.70;6.10;;;0.90;99.90;;;;;;5031781;28;20227;-46
2021/01/28 08:02:29;;;;;;;7.27;5.13;;;0.90;99.90;;;;;;5027834;28;20203;-45
2021/01/28 08:04:59;;;;;;;7.73;5.27;;;0.90;99.90;;;;;;5042843;28;20231;-54
2021/01/28 08:07:34;;;;;;;8.63;5.40;;;0.90;99.90;;;;;;5035830;28;20194;-45
2021/01/28 08:10:06;;;;;;;8.50;5.80;;;0.90;99.90;;;;;;5039573;28;20184;-50
2021/01/28 08:12:45;;;;;;;7.40;5.27;;;0.90;99.90;;;;;;5044727;28;20708;-47
2021/01/28 08:15:17;;;;;;;6.20;5.47;;;0.90;99.90;;;;;;5029331;28;20920;-49
2021/01/28 08:17:42;;;;;;;7.57;5.20;;;0.90;99.90;;;;;;5037790;28;20192;-46
2021/01/28 08:20:29;;;;;;;9.83;5.50;;;0.80;99.90;;;;;;5041747;28;20208;-46
2021/01/28 08:23:13;;;;;;;7.80;5.50;;;0.90;99.90;;;;;;5039411;28;20709;-49
2021/01/28 08:25:52;;;;;;;7.10;5.43;;;0.90;99.90;;;;;;5043855;28;20258;-44
2021/01/28 08:28:17;;;;;;;6.37;4.90;;;0.90;99.90;;;;;;5035202;28;20470;-45
2021/01/28 08:30:44;;;;;;;7.80;5.43;;;0.90;99.90;;;;;;5038315;28;20183;-48
2021/01/28 08:33:23;;;;;;;7.50;5.50;;;0.90;99.90;;;;;;5025970;28;20186;-48
2021/01/28 08:35:54;;;;;;;7.33;5.33;;;0.90;99.90;;;;;;5040727;28;20204;-46
2021/01/28 08:38:21;;;;;;;7.57;5.30;;;0.90;99.90;;;;;;5034698;28;20983;-46
2021/01/28 08:41:12;;;;;;;8.17;5.67;;;0.90;99.90;;;;;;5036669;28;20674;-46
2021/01/28 08:43:37;;;;;;;9.67;5.70;;;0.90;99.90;;;;;;5036185;28;20205;-51
2021/01/28 08:46:06;;;;;;;5.23;4.73;;;0.90;99.90;;;;;;5032343;28;20580;-50
2021/01/28 08:48:31;;;;;;;8.07;4.83;;;0.90;99.90;;;;;;5031524;28;20190;-49
2021/01/28 08:51:28;;;;;;;4.90;4.27;;;0.90;99.90;;;;;;5040696;28;20216;-50
2021/01/28 08:54:05;;;;;;;6.43;4.73;;;0.90;99.90;;;;;;5036128;28;20247;-47
2021/01/28 08:56:35;;;;;;;7.17;4.67;;;0.90;99.90;;;;;;5044144;28;20201;-47
2021/01/28 08:59:04;;;;;;;6.13;4.17;;;0.90;99.90;;;;;;5040490;28;20651;-48
2021/01/28 09:01:39;;;;;;;6.80;5.20;;;0.90;99.90;;;;;;5034009;28;20186;-47
2021/01/28 09:04:23;;;;;;;5.50;4.50;;;1.00;99.90;;;;;;5033352;28;20274;-48
2021/01/28 09:06:49;;;;;;;5.37;4.47;;;1.00;99.90;;;;;;5044095;28;20184;-47
2021/01/28 09:09:35;;;;;;;5.63;4.60;;;1.10;99.90;;;;;;5034395;28;20263;-47
2021/01/28 09:12:27;;;;;;;7.53;4.83;;;1.10;99.90;;;;;;5038941;28;20208;-49
2021/01/28 09:15:16;;;;;;;5.47;4.40;;;1.10;99.90;;;;;;5037074;28;20208;-47
2021/01/28 09:17:43;;;;;;;5.33;3.93;;;1.10;99.90;;;;;;5033636;28;20192;-46
2021/01/28 09:20:21;;;;;;;5.70;4.07;;;1.10;99.90;;;;;;5026833;28;22237;-46
2021/01/28 09:22:47;;;;;;;7.00;4.60;;;1.10;99.90;;;;;;5040920;28;20171;-46
2021/01/28 09:25:18;;;;;;;5.60;4.00;;;1.10;99.90;;;;;;5033811;28;20211;-46
2021/01/28 09:27:44;;;;;;;5.03;4.17;;;1.10;99.90;;;;;;5042547;28;20264;-46
2021/01/28 09:30:18;;;;;;;4.93;3.93;;;1.20;99.90;;;;;;5033408;28;20184;-44
2021/01/28 09:32:44;;;;;;;7.10;4.53;;;1.20;99.90;;;;;;5033036;28;20221;-46
2021/01/28 09:35:23;;;;;;;5.53;4.27;;;1.20;99.90;;;;;;5038461;28;20195;-44
2021/01/28 09:38:14;;;;;;;4.87;3.77;;;1.20;99.90;;;;;;5031699;28;20198;-49
2021/01/28 09:40:45;;;;;;;4.73;3.80;;;1.20;99.90;;;;;;5031418;28;20832;-45
2021/01/28 09:43:17;;;;;;;5.30;4.53;;;1.30;99.90;;;;;;5031429;28;20222;-48
2021/01/28 09:45:59;;;;;;;6.57;4.10;;;1.40;99.90;;;;;;5028744;28;20210;-46
2021/01/28 09:48:25;;;;;;;3.70;3.30;;;1.40;99.90;;;;;;5036286;28;20197;-46
2021/01/28 09:50:50;;;;;;;4.37;3.40;;;1.50;99.90;;;;;;5023502;28;21918;-46
2021/01/28 09:53:16;;;;;;;3.77;3.40;;;1.40;99.90;;;;;;5028304;28;20198;-53
2021/01/28 09:55:41;;;;;;;5.03;3.20;;;1.50;99.90;;;;;;4993501;28;20262;-47
2021/01/28 09:58:07;;;;;;;3.23;3.03;;;1.40;99.90;;;;;;5028392;28;20235;-47
2021/01/28 10:00:33;;;;;;;3.40;2.97;;;1.50;99.90;;;;;;5033798;28;20209;-47
2021/01/28 10:03:00;;;;;;;5.27;2.90;;;1.50;99.90;;;;;;5036209;28;20194;-52
2021/01/28 10:05:32;;;;;;;3.07;2.60;;;1.50;99.90;;;;;;5034004;28;20220;-51
2021/01/28 10:07:58;;;;;;;3.50;2.87;;;1.50;99.90;;;;;;5019662;28;20198;-50
2021/01/28 10:10:27;;;;;;;4.23;2.93;;;1.60;99.90;;;;;;5042889;28;20236;-48
2021/01/28 10:12:56;;;;;;;4.67;2.83;;;1.50;99.90;;;;;;5043557;28;20272;-48
2021/01/28 10:15:24;;;;;;;3.77;3.00;;;1.50;99.90;;;;;;5047897;28;20203;-49
2021/01/28 10:17:50;;;;;;;3.30;2.70;;;1.50;99.90;;;;;;5041912;28;20202;-50
2021/01/28 10:20:15;;;;;;;2.50;2.30;;;1.50;99.90;;;;;;5036236;28;20467;-49
2021/01/28 10:22:43;;;;;;;3.17;2.70;;;1.50;99.90;;;;;;5039463;28;20217;-48
2021/01/28 10:25:11;;;;;;;2.83;2.63;;;1.50;99.90;;;;;;5027648;28;20298;-50
2021/01/28 10:27:37;;;;;;;3.07;2.77;;;1.60;99.90;;;;;;5038151;28;20203;-52
2021/01/28 10:30:07;;;;;;;3.33;3.03;;;1.70;99.90;;;;;;5040978;28;20263;-52
2021/01/28 10:32:33;;;;;;;5.60;3.50;;;1.80;99.90;;;;;;5040707;28;20588;-47
2021/01/28 10:34:59;;;;;;;7.97;4.03;;;1.70;99.90;;;;;;5034713;28;20721;-51
2021/01/28 10:37:25;;;;;;;6.67;4.33;;;1.70;99.90;;;;;;5038824;28;20205;-44
2021/01/28 10:39:50;;;;;;;5.70;4.00;;;1.70;99.90;;;;;;5032071;28;20289;-50
2021/01/28 10:42:19;;;;;;;6.07;4.40;;;1.80;99.90;;;;;;5036354;28;20231;-46
2021/01/28 10:44:46;;;;;;;4.53;3.77;;;1.90;99.90;;;;;;5042893;28;20341;-49
2021/01/28 10:47:12;;;;;;;6.27;4.50;;;1.90;99.90;;;;;;5035592;28;20194;-44
2021/01/28 10:49:38;;;;;;;6.20;3.87;;;1.90;99.90;;;;;;5044546;28;20213;-45
2021/01/28 10:52:03;;;;;;;5.23;3.70;;;1.90;99.90;;;;;;5030149;28;20207;-51
2021/01/28 10:54:29;;;;;;;4.87;3.37;;;1.90;99.90;;;;;;5032859;28;20617;-45
2021/01/28 10:56:54;;;;;;;5.87;4.27;;;1.90;99.90;;;;;;5042410;28;20221;-51
2021/01/28 10:59:20;;;;;;;6.17;4.17;;;1.90;99.90;;;;;;5036700;28;20198;-45
2021/01/28 11:01:45;;;;;;;3.37;2.87;;;1.90;99.90;;;;;;5044869;28;20182;-47
2021/01/28 11:04:11;;;;;;;4.97;3.10;;;1.90;99.90;;;;;;5034545;28;20198;-46
2021/01/28 11:06:36;;;;;;;6.47;2.37;;;2.00;99.90;;;;;;5034207;28;20210;-45
2021/01/28 11:09:03;;;;;;;1.83;1.70;;;1.90;99.90;;;;;;5030147;28;20201;-53
2021/01/28 11:11:28;;;;;;;3.50;2.17;;;2.00;99.90;;;;;;5042930;28;20206;-47
2021/01/28 11:13:55;;;;;;;3.37;1.90;;;1.90;99.90;;;;;;5038322;28;20214;-48
2021/01/28 11:16:23;;;;;;;2.17;1.90;;;1.90;99.90;;;;;;5035031;28;20249;-47
2021/01/28 11:18:50;;;;;;;2.37;1.63;;;1.90;99.90;;;;;;5041402;28;20546;-49
2021/01/28 11:21:16;;;;;;;2.07;1.83;;;2.00;99.90;;;;;;5044772;28;21004;-52
2021/01/28 11:23:42;;;;;;;3.47;2.10;;;1.90;99.90;;;;;;5042175;28;20198;-51
2021/01/28 11:26:08;;;;;;;5.67;1.70;;;1.90;99.90;;;;;;5034370;28;20214;-51
2021/01/28 11:28:33;;;;;;;4.90;2.57;;;1.90;99.90;;;;;;5048046;28;20551;-53
2021/01/28 11:30:58;;;;;;;2.40;1.97;;;1.90;99.90;;;;;;5034070;28;20190;-50
2021/01/28 11:33:24;;;;;;;2.63;2.00;;;2.00;99.90;;;;;;5043760;28;20247;-47
2021/01/28 11:35:50;;;;;;;2.00;1.90;;;2.00;99.90;;;;;;5041556;28;20671;-50
2021/01/28 11:38:15;;;;;;;2.50;1.87;;;2.00;99.90;;;;;;5035826;28;20598;-50
2021/01/28 11:40:40;;;;;;;2.83;1.80;;;2.00;99.90;;;;;;5035038;28;20198;-50
2021/01/28 11:43:06;;;;;;;3.07;2.07;;;2.10;99.90;;;;;;5043088;28;20918;-50
2021/01/28 11:45:35;;;;;;;3.30;1.93;;;2.10;99.90;;;;;;5045961;28;20206;-51
2021/01/28 11:48:01;;;;;;;2.40;1.83;;;2.20;99.90;;;;;;5031694;28;20679;-48
2021/01/28 11:50:26;;;;;;;2.97;2.00;;;2.20;99.90;;;;;;5034706;28;20233;-51
2021/01/28 11:52:52;;;;;;;2.20;1.70;;;2.20;99.90;;;;;;5043774;28;20211;-50
2021/01/28 11:55:21;;;;;;;3.70;2.40;;;2.20;99.90;;;;;;5026508;28;21351;-51
2021/01/28 11:57:46;;;;;;;1.80;1.70;;;2.20;99.90;;;;;;5040205;28;20186;-49
2021/01/28 12:00:15;;;;;;;1.97;1.77;;;2.20;99.90;;;;;;5041870;28;20179;-51
2021/01/28 12:02:40;;;;;;;2.30;1.57;;;2.20;99.90;;;;;;5037771;28;20200;-49
2021/01/28 12:05:08;;;;;;;3.87;2.20;;;2.20;99.90;;;;;;5033888;28;20217;-50
2021/01/28 12:07:34;;;;;;;3.03;1.93;;;2.20;99.90;;;;;;5045936;28;20195;-49
2021/01/28 12:10:00;;;;;;;5.03;2.00;;;2.30;99.90;;;;;;5034599;28;20202;-50
2021/01/28 12:12:25;;;;;;;2.73;1.83;;;2.30;99.90;;;;;;5034022;28;20265;-52
2021/01/28 12:14:50;;;;;;;2.47;1.67;;;2.40;99.90;;;;;;5045067;28;20201;-46
2021/01/28 12:17:16;;;;;;;2.03;1.70;;;2.40;99.90;;;;;;5028987;28;20199;-51
2021/01/28 12:19:42;;;;;;;3.93;1.93;;;2.40;99.90;;;;;;5039605;28;20178;-46
2021/01/28 12:22:07;;;;;;;4.47;1.80;;;2.40;99.90;;;;;;5040549;28;20906;-51
2021/01/28 12:24:33;;;;;;;2.00;1.83;;;2.50;99.90;;;;;;5040286;28;20211;-47
2021/01/28 12:27:01;;;;;;;2.97;1.73;;;2.50;99.90;;;;;;5035455;28;20662;-48
2021/01/28 12:29:27;;;;;;;3.63;1.80;;;2.50;99.90;;;;;;5042538;28;20517;-50
2021/01/28 12:31:53;;;;;;;2.27;1.80;;;2.40;99.90;;;;;;5044515;28;20367;-49
2021/01/28 12:34:19;;;;;;;2.87;1.83;;;2.40;99.90;;;;;;5037996;28;20284;-48
2021/01/28 12:36:45;;;;;;;4.37;2.30;;;2.40;99.90;;;;;;5041182;28;20660;-48
2021/01/28 12:39:11;;;;;;;3.73;1.77;;;2.40;99.90;;;;;;5027213;28;20758;-47
2021/01/28 12:41:37;;;;;;;2.50;2.13;;;2.40;99.90;;;;;;5028939;28;20206;-48
2021/01/28 12:44:03;;;;;;;3.30;2.07;;;2.40;99.90;;;;;;5038045;28;20199;-50
2021/01/28 12:46:28;;;;;;;2.87;1.90;;;2.40;99.90;;;;;;5045678;28;20235;-52
2021/01/28 12:48:54;;;;;;;5.10;1.93;;;2.40;99.90;;;;;;5043568;28;20187;-51
2021/01/28 12:51:19;;;;;;;2.40;1.70;;;2.40;99.90;;;;;;5030350;28;20367;-51
2021/01/28 12:53:45;;;;;;;1.40;1.30;;;2.50;99.90;;;;;;5044371;28;20231;-45
2021/01/28 12:56:11;;;;;;;2.23;1.70;;;2.60;99.90;;;;;;5031890;28;20218;-50
2021/01/28 12:58:36;;;;;;;5.43;1.47;;;2.70;99.90;;;;;;5029801;28;20238;-47
2021/01/28 13:01:03;;;;;;;2.80;1.90;;;2.80;99.90;;;;;;5039755;28;20198;-52
2021/01/28 13:03:29;;;;;;;1.50;1.40;;;2.90;99.90;;;;;;5027207;28;20810;-51
2021/01/28 13:05:55;;;;;;;3.00;1.10;;;2.90;99.90;;;;;;5030433;28;20260;-48
2021/01/28 13:08:20;;;;;;;1.47;1.37;;;2.90;99.90;;;;;;5039624;28;20191;-45
2021/01/28 13:10:46;;;;;;;1.90;1.13;;;2.90;99.90;;;;;;5028511;28;20205;-46